Ayden, North Carolina
Current Conditions -  °F | °C
As of 5:50 PM on Wednesday 22 Oct 2014 (Local Time) from KPGV Reporting Station
Overcast Overcast  
Wind Chill: 15°   Ceiling: 5500
Heat Index: 15°   Visibility: 10mi
Dew Point: 10°   Wind: 0mph
Humidity: 72%   Direction: NA
Pressure: 29.95"   Gusts: NA
Location:  35.47°N, 77.42°W
Report Text: KPGV 222150Z AUTO 00000KT 10SM BKN055 OVC070 15/10 A2995 RMK AO2
Loading
Personal Weather Stations






























Interactive Weather Map
Tropical Storm Tracking
New forecast layout! Learn more

10-Day Weather Forecast

Advertisements
Track Severe Weather on mobile